Time;durP1;ratioP1;P1;durP2;ratioP2;P2;SDS_P1;SDS_P2;PMS_P1;PMS_P2;Temp;Humidity;BMP_temperature;BMP_pressure;BME280_temperature;BME280_humidity;BME280_pressure;Samples;Min_cycle;Max_cycle;Signal;HPM_P1;HPM_P2
2023/02/13 00:00:58;;;;;;;39.88;10.85;;;1.10;99.90;;;;;;4976837;28;20031;-93
2023/02/13 00:03:26;;;;;;;51.88;10.95;;;1.00;99.90;;;;;;4960033;29;20046;-93
2023/02/13 00:05:53;;;;;;;122.35;17.05;;;1.00;99.90;;;;;;4958637;29;20035;-93
2023/02/13 00:08:22;;;;;;;110.50;19.27;;;1.00;99.90;;;;;;4954117;28;20493;-94
2023/02/13 00:10:49;;;;;;;149.75;16.48;;;1.00;99.90;;;;;;4971380;29;20040;-92
2023/02/13 00:13:18;;;;;;;51.33;11.52;;;1.00;99.90;;;;;;4975702;28;20042;-93
2023/02/13 00:15:57;;;;;;;35.97;12.73;;;1.00;99.90;;;;;;4959749;28;20037;-94
2023/02/13 00:18:26;;;;;;;34.38;14.05;;;1.00;99.90;;;;;;4971799;28;20062;-93
2023/02/13 00:21:02;;;;;;;108.03;13.80;;;1.00;99.90;;;;;;4956153;29;20038;-94
2023/02/13 00:23:32;;;;;;;52.65;11.00;;;1.00;99.90;;;;;;4963711;29;20035;-93
2023/02/13 00:26:04;;;;;;;57.97;13.52;;;1.00;99.90;;;;;;4963089;28;20035;-96
2023/02/13 00:28:31;;;;;;;;;;;1.00;99.90;;;;;;4958092;29;20079;-92
2023/02/13 00:31:10;;;;;;;78.63;11.40;;;1.00;99.90;;;;;;4958877;28;19922;-93
2023/02/13 00:33:39;;;;;;;103.53;13.82;;;1.00;99.90;;;;;;4962672;29;20055;-95
2023/02/13 00:36:10;;;;;;;20.83;11.68;;;1.00;99.90;;;;;;4959727;28;20039;-95
2023/02/13 00:38:40;;;;;;;25.30;10.95;;;1.00;99.90;;;;;;4954609;28;20051;-93
2023/02/13 00:41:10;;;;;;;107.95;13.63;;;1.00;99.90;;;;;;4944587;29;20094;-94
2023/02/13 00:43:39;;;;;;;28.80;11.82;;;1.00;99.90;;;;;;4951018;29;20145;-92
2023/02/13 00:46:06;;;;;;;36.25;14.43;;;1.00;99.90;;;;;;4961003;28;20374;-94
2023/02/13 00:48:38;;;;;;;21.65;11.23;;;1.00;99.90;;;;;;4932927;29;20055;-92
2023/02/13 00:51:12;;;;;;;26.88;11.10;;;1.00;99.90;;;;;;4940177;29;20071;-94
2023/02/13 00:53:40;;;;;;;31.50;11.75;;;1.00;99.90;;;;;;4924387;29;20461;-93
2023/02/13 00:56:08;;;;;;;82.00;15.30;;;1.00;99.90;;;;;;4941835;29;20508;-94
2023/02/13 00:58:37;;;;;;;55.35;15.15;;;1.00;99.90;;;;;;4938738;29;20039;-95
2023/02/13 01:01:05;;;;;;;60.97;14.18;;;0.90;99.90;;;;;;4947235;28;20050;-93
2023/02/13 01:03:34;;;;;;;43.67;13.75;;;0.90;99.90;;;;;;4936177;29;20047;-94
2023/02/13 01:06:02;;;;;;;39.63;11.40;;;0.90;99.90;;;;;;4942064;28;20137;-94
2023/02/13 01:08:31;;;;;;;33.85;9.48;;;0.90;99.90;;;;;;4932819;28;20043;-93
2023/02/13 01:10:58;;;;;;;21.77;12.88;;;0.80;99.90;;;;;;4928138;29;20054;-94
2023/02/13 01:13:26;;;;;;;53.35;10.35;;;0.70;99.90;;;;;;4936695;29;20054;-94
2023/02/13 01:15:55;;;;;;;24.75;10.65;;;0.70;99.90;;;;;;4938435;29;20055;-93
2023/02/13 01:18:23;;;;;;;22.13;11.25;;;0.70;99.90;;;;;;4943110;29;20047;-93
2023/02/13 01:21:00;;;;;;;31.77;11.55;;;0.70;99.90;;;;;;4939676;28;20055;-94
2023/02/13 01:23:33;;;;;;;60.60;15.00;;;0.70;99.90;;;;;;4932364;29;20056;-94
2023/02/13 01:26:06;;;;;;;45.90;13.80;;;0.70;99.90;;;;;;4931692;29;20055;-95
2023/02/13 01:28:34;;;;;;;35.08;13.57;;;0.70;99.90;;;;;;4936477;28;20050;-94
2023/02/13 01:31:02;;;;;;;22.45;12.10;;;0.60;99.90;;;;;;4935568;29;20048;-95
2023/02/13 01:33:30;;;;;;;74.00;14.52;;;0.70;99.90;;;;;;4932192;28;20292;-95
2023/02/13 01:35:59;;;;;;;26.88;6.82;;;0.70;99.90;;;;;;4942389;29;20062;-94
2023/02/13 01:38:27;;;;;;;73.63;12.55;;;0.70;99.90;;;;;;4925792;29;20039;-95
2023/02/13 01:40:55;;;;;;;40.10;11.57;;;0.70;99.90;;;;;;4922751;29;20040;-93
2023/02/13 01:43:23;;;;;;;24.95;12.07;;;0.70;99.90;;;;;;4956578;29;20051;-93
2023/02/13 01:45:56;;;;;;;22.08;10.07;;;0.70;99.90;;;;;;4936920;29;20075;-94
2023/02/13 01:48:26;;;;;;;25.38;11.32;;;0.70;99.90;;;;;;4937062;29;20047;-96
2023/02/13 01:51:07;;;;;;;27.95;10.77;;;0.70;99.90;;;;;;4942342;29;20055;-95
2023/02/13 01:53:48;;;;;;;18.75;8.80;;;0.60;99.90;;;;;;4921997;29;20054;-93
2023/02/13 01:56:28;;;;;;;37.35;11.68;;;0.60;99.90;;;;;;4923356;29;20070;-94
2023/02/13 01:59:06;;;;;;;51.72;11.15;;;0.60;99.90;;;;;;4942954;29;20043;-94
2023/02/13 02:01:36;;;;;;;20.80;12.43;;;0.50;99.90;;;;;;4925798;29;20047;-95
2023/02/13 02:04:09;;;;;;;86.15;13.98;;;0.40;99.90;;;;;;4918932;29;20051;-94
2023/02/13 02:06:43;;;;;;;14.75;8.30;;;0.40;99.90;;;;;;4938770;29;20052;-94
2023/02/13 02:09:19;;;;;;;26.00;9.25;;;0.30;99.90;;;;;;4936871;29;20051;-93
2023/02/13 02:12:06;;;;;;;22.65;9.73;;;0.40;99.90;;;;;;4936427;29;20059;-95
2023/02/13 02:14:39;;;;;;;8.40;7.47;;;0.30;99.90;;;;;;4898740;29;20404;-93
2023/02/13 02:17:11;;;;;;;14.60;10.27;;;0.30;99.90;;;;;;4943633;29;20047;-94
2023/02/13 02:19:57;;;;;;;85.05;11.13;;;0.30;99.90;;;;;;4917855;29;20085;-94
2023/02/13 02:23:04;;;;;;;47.60;9.40;;;0.30;99.90;;;;;;4944043;28;20051;-95
2023/02/13 02:25:33;;;;;;;56.30;11.15;;;0.30;99.90;;;;;;4925938;29;20289;-92
2023/02/13 02:28:14;;;;;;;54.95;4.65;;;0.30;99.90;;;;;;4939279;29;20067;-93
2023/02/13 02:31:04;;;;;;;143.15;31.05;;;0.30;99.90;;;;;;4938499;29;20059;-95
2023/02/13 02:34:08;;;;;;;57.20;13.50;;;0.20;99.90;;;;;;4930228;29;20051;-93
2023/02/13 02:36:59;;;;;;;32.05;10.15;;;0.20;99.90;;;;;;4929075;29;20325;-92
2023/02/13 02:40:05;;;;;;;54.33;8.50;;;0.10;99.90;;;;;;4935510;29;20070;-95
2023/02/13 02:42:49;;;;;;;23.02;9.55;;;0.10;99.90;;;;;;4919148;29;20051;-92
2023/02/13 02:45:41;;;;;;;38.50;12.13;;;0.10;99.90;;;;;;4932506;28;20051;-93
2023/02/13 02:51:30;;;;;;;39.55;7.22;;;0.00;99.90;;;;;;4922640;29;20051;-94
2023/02/13 02:57:20;;;;;;;60.92;10.52;;;-0.10;99.90;;;;;;4947324;28;20128;-96
2023/02/13 03:13:17;;;;;;;20.55;7.25;;;0.00;99.90;;;;;;4933118;28;20587;-94
2023/02/13 03:13:59;;;;;;;29.10;9.15;;;-0.20;99.90;;;;;;4952094;28;20086;-92
2023/02/13 03:22:52;;;;;;;99.32;11.70;;;-0.20;99.90;;;;;;4934133;28;20055;-76
2023/02/13 03:25:54;;;;;;;13.90;6.40;;;-0.30;99.90;;;;;;4928650;29;20047;-76
2023/02/13 03:31:19;;;;;;;32.10;8.77;;;-0.30;99.90;;;;;;4927750;29;20063;-76
2023/02/13 03:33:58;;;;;;;21.40;7.88;;;-0.30;99.90;;;;;;4947315;28;20043;-76
2023/02/13 03:40:02;;;;;;;14.57;8.15;;;-0.30;99.90;;;;;;4904986;29;20388;-76
2023/02/13 03:42:52;;;;;;;12.23;7.87;;;-0.30;99.90;;;;;;4925142;28;20056;-76
2023/02/13 03:51:13;;;;;;;38.90;10.20;;;-0.20;99.90;;;;;;4947735;29;20051;-76
2023/02/13 03:53:41;;;;;;;;;;;-0.20;99.90;;;;;;4913068;29;20043;-76
2023/02/13 03:59:14;;;;;;;30.27;9.55;;;-0.20;99.90;;;;;;4929190;29;20411;-76
2023/02/13 04:01:50;;;;;;;92.90;12.13;;;-0.20;99.90;;;;;;4938434;29;20067;-92
2023/02/13 04:04:26;;;;;;;19.73;9.35;;;-0.10;99.90;;;;;;4929293;29;20051;-90
2023/02/13 04:07:05;;;;;;;24.98;9.15;;;-0.10;99.90;;;;;;4932420;29;20055;-90
2023/02/13 04:09:37;;;;;;;23.42;8.18;;;-0.10;99.90;;;;;;4940875;29;20047;-93
2023/02/13 04:12:47;;;;;;;23.13;8.30;;;-0.10;99.90;;;;;;4952415;29;20055;-92
2023/02/13 04:15:31;;;;;;;37.00;9.15;;;-0.10;99.90;;;;;;4877961;29;20047;-91
2023/02/13 04:18:21;;;;;;;16.20;10.63;;;-0.10;99.90;;;;;;4914563;29;20044;-92
2023/02/13 04:20:49;;;;;;;26.10;12.00;;;-0.10;99.90;;;;;;4913283;29;20051;-91
2023/02/13 04:23:18;;;;;;;31.25;10.73;;;-0.10;99.90;;;;;;4951363;29;20364;-93
2023/02/13 04:25:49;;;;;;;80.53;12.57;;;-0.10;99.90;;;;;;4946280;29;20043;-90
2023/02/13 04:28:17;;;;;;;26.30;7.95;;;-0.20;99.90;;;;;;4946987;29;20060;-91
2023/02/13 04:30:45;;;;;;;18.17;7.90;;;-0.20;99.90;;;;;;4946898;29;20067;-91
2023/02/13 04:33:13;;;;;;;31.30;7.85;;;-0.20;99.90;;;;;;4933963;29;20047;-92
2023/02/13 04:35:40;;;;;;;14.82;5.75;;;-0.20;99.90;;;;;;4934734;29;20047;-93
2023/02/13 04:38:09;;;;;;;18.90;9.32;;;-0.30;99.90;;;;;;4933997;29;20051;-93
2023/02/13 04:40:36;;;;;;;32.63;7.88;;;-0.40;99.90;;;;;;4931039;29;20047;-91
2023/02/13 04:43:04;;;;;;;44.35;8.02;;;-0.40;99.90;;;;;;4930787;29;20051;-91
2023/02/13 04:45:32;;;;;;;23.48;7.55;;;-0.40;99.90;;;;;;4941356;29;20048;-91
2023/02/13 04:47:59;;;;;;;9.07;6.22;;;-0.40;99.90;;;;;;4947433;29;20043;-92
2023/02/13 04:50:27;;;;;;;32.85;8.27;;;-0.40;99.90;;;;;;4930830;29;20047;-92
2023/02/13 04:52:57;;;;;;;21.95;8.20;;;-0.40;99.90;;;;;;4929934;29;20048;-92
2023/02/13 04:55:26;;;;;;;61.20;10.27;;;-0.40;99.90;;;;;;4942245;29;20058;-91
2023/02/13 04:57:55;;;;;;;12.75;8.75;;;-0.40;99.90;;;;;;4914387;29;20056;-91
2023/02/13 05:00:25;;;;;;;24.70;10.07;;;-0.50;99.90;;;;;;4917516;28;20058;-91
2023/02/13 05:02:53;;;;;;;68.05;9.90;;;-0.50;99.90;;;;;;4932956;29;20063;-91
2023/02/13 05:05:21;;;;;;;28.27;8.40;;;-0.40;99.90;;;;;;4943127;28;20067;-91
2023/02/13 05:07:48;;;;;;;59.58;8.95;;;-0.40;99.90;;;;;;4950446;29;20055;-92
2023/02/13 05:10:16;;;;;;;20.25;8.23;;;-0.50;99.90;;;;;;4915722;29;20043;-90
2023/02/13 05:12:44;;;;;;;19.85;8.35;;;-0.50;99.90;;;;;;4933015;28;20055;-90
2023/02/13 05:15:11;;;;;;;49.47;9.82;;;-0.50;99.90;;;;;;4947016;29;20062;-92
2023/02/13 05:17:42;;;;;;;13.77;6.85;;;-0.50;99.90;;;;;;4948208;29;20044;-89
2023/02/13 05:20:10;;;;;;;46.47;9.13;;;-0.40;99.90;;;;;;4932532;29;20055;-90
2023/02/13 05:25:39;;;;;;;23.88;8.05;;;-0.40;99.90;;;;;;4915923;29;20052;-90
2023/02/13 05:29:17;;;;;;;37.40;11.30;;;-0.40;99.90;;;;;;4943368;29;20047;-92
2023/02/13 05:30:55;;;;;;;20.40;9.25;;;-0.40;99.90;;;;;;4917271;29;20055;-91
2023/02/13 05:33:24;;;;;;;36.05;9.18;;;-0.40;99.90;;;;;;4935982;29;20048;-89
2023/02/13 05:35:52;;;;;;;48.40;9.25;;;-0.50;99.90;;;;;;4949617;29;20048;-89
2023/02/13 05:38:20;;;;;;;40.22;10.65;;;-0.40;99.90;;;;;;4930465;29;20051;-89
2023/02/13 05:40:47;;;;;;;39.67;10.07;;;-0.40;99.90;;;;;;4940672;29;20051;-90
2023/02/13 05:43:15;;;;;;;23.20;9.77;;;-0.40;99.90;;;;;;4936683;29;20047;-90
2023/02/13 05:45:43;;;;;;;16.60;7.93;;;-0.40;99.90;;;;;;4920105;29;20054;-89
2023/02/13 05:48:10;;;;;;;76.00;10.18;;;-0.40;99.90;;;;;;4952116;29;20062;-91
2023/02/13 05:50:39;;;;;;;17.77;9.57;;;-0.40;99.90;;;;;;4930859;29;20046;-89
2023/02/13 05:53:06;;;;;;;62.95;10.45;;;-0.50;99.90;;;;;;4930590;29;20039;-90
2023/02/13 05:55:34;;;;;;;36.22;8.52;;;-0.50;99.90;;;;;;4933929;29;20062;-90
2023/02/13 05:58:02;;;;;;;21.95;9.25;;;-0.50;99.90;;;;;;4930916;29;20047;-89
2023/02/13 06:00:30;;;;;;;56.00;11.70;;;-0.50;99.90;;;;;;4948327;28;20059;-90
2023/02/13 06:02:57;;;;;;;20.15;9.35;;;-0.60;99.90;;;;;;4917437;29;20058;-90
2023/02/13 06:05:25;;;;;;;13.95;8.35;;;-0.60;99.90;;;;;;4936804;29;20055;-88
2023/02/13 06:07:53;;;;;;;12.23;6.47;;;-0.50;99.90;;;;;;4933645;29;20051;-88
2023/02/13 06:10:21;;;;;;;93.70;12.00;;;-0.50;99.90;;;;;;4929216;29;20058;-86
2023/02/13 06:12:48;;;;;;;16.83;9.45;;;-0.50;99.90;;;;;;4930330;29;20093;-87
2023/02/13 06:15:16;;;;;;;15.07;8.88;;;-0.50;99.90;;;;;;4928754;29;20059;-86
2023/02/13 06:17:43;;;;;;;46.33;13.57;;;-0.50;99.90;;;;;;4918202;29;20043;-88
2023/02/13 06:20:11;;;;;;;18.05;11.70;;;-0.50;99.90;;;;;;4934543;29;20050;-85
2023/02/13 06:22:39;;;;;;;27.70;11.23;;;-0.50;99.90;;;;;;4945980;29;20051;-87
2023/02/13 06:25:07;;;;;;;49.50;10.05;;;-0.50;99.90;;;;;;4946136;29;20047;-87
2023/02/13 06:27:34;;;;;;;36.28;7.65;;;-0.50;99.90;;;;;;4945820;29;20058;-88
2023/02/13 06:30:02;;;;;;;61.30;12.32;;;-0.60;99.90;;;;;;4949109;29;20043;-88
2023/02/13 06:32:30;;;;;;;16.70;9.07;;;-0.60;99.90;;;;;;4931904;28;20062;-87
2023/02/13 06:34:58;;;;;;;14.60;8.57;;;-0.60;99.90;;;;;;4931057;29;20059;-89
2023/02/13 06:37:25;;;;;;;30.67;15.57;;;-0.60;99.90;;;;;;4918744;29;20047;-95
2023/02/13 06:39:53;;;;;;;72.85;13.93;;;-0.50;99.90;;;;;;4933316;29;20055;-89
2023/02/13 06:42:21;;;;;;;120.60;15.88;;;-0.60;99.90;;;;;;4929774;29;20063;-88
2023/02/13 06:44:48;;;;;;;18.70;10.77;;;-0.60;99.90;;;;;;4938155;29;20058;-88
2023/02/13 06:47:16;;;;;;;10.93;9.02;;;-0.60;99.90;;;;;;4937073;29;20051;-87
2023/02/13 06:49:44;;;;;;;39.00;12.13;;;-0.60;99.90;;;;;;4914624;28;20052;-88
2023/02/13 06:52:19;;;;;;;52.00;44.50;;;-0.50;99.90;;;;;;4898223;29;20064;-91
2023/02/13 06:54:46;;;;;;;35.08;10.20;;;-0.50;99.90;;;;;;4873803;29;20051;-90
2023/02/13 06:57:15;;;;;;;25.38;11.90;;;-0.50;99.90;;;;;;4897633;29;20041;-90
2023/02/13 06:59:43;;;;;;;35.45;10.75;;;-0.50;99.90;;;;;;4898726;29;20056;-90
2023/02/13 07:02:11;;;;;;;33.08;10.32;;;-0.50;99.90;;;;;;4897894;29;20056;-91
2023/02/13 07:04:40;;;;;;;25.92;10.82;;;-0.60;99.90;;;;;;4900000;29;20059;-90
2023/02/13 07:07:07;;;;;;;12.80;8.93;;;-0.60;99.90;;;;;;4915687;29;20180;-92
2023/02/13 07:09:35;;;;;;;18.33;9.00;;;-0.60;99.90;;;;;;4907719;29;20060;-94
2023/02/13 07:12:04;;;;;;;15.75;9.02;;;-0.70;99.90;;;;;;4899820;29;20067;-93
2023/02/13 07:14:32;;;;;;;64.97;12.40;;;-0.60;99.90;;;;;;4906239;29;20040;-93
2023/02/13 07:17:00;;;;;;;18.33;9.63;;;-0.60;99.90;;;;;;4955854;29;20054;-94
2023/02/13 07:19:28;;;;;;;14.95;7.97;;;-0.50;99.90;;;;;;4950809;29;20048;-94
2023/02/13 07:26:49;;;;;;;24.00;9.68;;;-0.40;99.90;;;;;;4902388;29;20047;-94
2023/02/13 07:29:17;;;;;;;34.97;12.02;;;-0.40;99.90;;;;;;4955537;28;20035;-94
2023/02/13 07:31:45;;;;;;;37.47;9.55;;;-0.50;99.90;;;;;;4939160;29;20070;-93
2023/02/13 07:34:13;;;;;;;35.80;8.25;;;-0.60;99.90;;;;;;4938761;29;20051;-94
2023/02/13 07:36:40;;;;;;;47.30;12.25;;;-0.50;99.90;;;;;;4938898;29;20043;-94
2023/02/13 07:39:08;;;;;;;21.08;11.80;;;-0.40;99.90;;;;;;4943545;29;20051;-94
2023/02/13 07:41:36;;;;;;;11.80;8.75;;;-0.30;99.90;;;;;;4943834;29;20055;-94
2023/02/13 07:44:06;;;;;;;16.67;10.52;;;-0.30;99.90;;;;;;4939958;29;20061;-94
2023/02/13 07:46:34;;;;;;;21.67;8.10;;;-0.30;99.90;;;;;;4969871;29;20035;-93
2023/02/13 07:49:02;;;;;;;27.20;9.27;;;-0.30;99.90;;;;;;4950981;29;20052;-95
2023/02/13 07:51:30;;;;;;;13.32;9.77;;;-0.30;99.90;;;;;;4955898;28;20047;-93
2023/02/13 07:53:58;;;;;;;18.42;9.73;;;-0.30;99.90;;;;;;4955098;28;20062;-94
2023/02/13 07:56:26;;;;;;;13.95;10.63;;;-0.30;99.90;;;;;;4966324;28;20038;-94
2023/02/13 07:58:54;;;;;;;17.88;8.95;;;-0.20;99.90;;;;;;4938285;29;20074;-94
2023/02/13 08:01:22;;;;;;;18.85;8.50;;;-0.20;99.90;;;;;;4951497;28;20042;-94
2023/02/13 08:03:50;;;;;;;13.00;8.45;;;-0.10;99.90;;;;;;4975117;28;20043;-96
2023/02/13 08:06:22;;;;;;;27.20;17.25;;;-0.10;99.90;;;;;;4968215;29;20050;-94
2023/02/13 08:11:52;;;;;;;14.45;11.82;;;-0.10;99.90;;;;;;4972583;28;20039;-94
2023/02/13 08:11:52;;;;;;;13.85;8.10;;;-0.10;99.90;;;;;;4961338;29;20031;-95
2023/02/13 08:14:23;;;;;;;13.85;10.23;;;-0.10;99.90;;;;;;4973190;29;20043;-94
2023/02/13 08:16:53;;;;;;;20.13;14.87;;;-0.10;99.90;;;;;;4958132;28;20047;-94
2023/02/13 08:19:21;;;;;;;19.15;7.68;;;-0.10;99.90;;;;;;4975004;29;20331;-94
2023/02/13 08:21:49;;;;;;;46.92;9.98;;;-0.10;99.90;;;;;;4955257;29;20047;-95
2023/02/13 08:24:17;;;;;;;26.98;15.65;;;-0.20;99.90;;;;;;4974832;28;20033;-94
2023/02/13 08:26:46;;;;;;;36.58;11.52;;;-0.10;99.90;;;;;;4974643;28;20048;-93
2023/02/13 08:29:13;;;;;;;14.77;9.98;;;-0.10;99.90;;;;;;4942989;29;20035;-95
2023/02/13 08:31:41;;;;;;;25.65;11.40;;;-0.30;99.90;;;;;;4965947;29;20031;-93
2023/02/13 08:34:09;;;;;;;20.20;9.65;;;-0.40;99.90;;;;;;4970098;28;20058;-94
2023/02/13 08:36:37;;;;;;;33.28;8.77;;;-0.30;99.90;;;;;;4979004;29;20047;-95
2023/02/13 08:39:05;;;;;;;13.05;10.68;;;-0.20;99.90;;;;;;4943813;28;20039;-94
2023/02/13 08:41:34;;;;;;;23.60;9.55;;;-0.10;99.90;;;;;;4936541;29;20408;-93
2023/02/13 08:44:02;;;;;;;13.57;9.40;;;-0.10;99.90;;;;;;4953043;29;20058;-94
2023/02/13 08:46:29;;;;;;;20.67;8.82;;;-0.30;99.90;;;;;;4924993;29;20785;-94
2023/02/13 08:48:57;;;;;;;15.90;9.80;;;-0.20;99.90;;;;;;4951116;29;20051;-93
2023/02/13 08:51:25;;;;;;;13.82;9.52;;;-0.20;99.90;;;;;;4951436;29;20059;-94
2023/02/13 08:53:52;;;;;;;35.17;7.40;;;0.00;99.90;;;;;;4954935;28;20526;-94
2023/02/13 08:56:20;;;;;;;29.85;11.30;;;0.00;99.90;;;;;;4934257;28;20050;-92
2023/02/13 08:58:49;;;;;;;16.13;9.80;;;-0.10;99.90;;;;;;4934152;29;20059;-94
2023/02/13 09:01:17;;;;;;;39.78;14.65;;;-0.10;99.90;;;;;;4915254;29;20064;-94
2023/02/13 09:03:45;;;;;;;38.45;12.70;;;-0.10;99.90;;;;;;4923746;29;20084;-94
2023/02/13 09:06:14;;;;;;;19.35;10.00;;;-0.10;99.90;;;;;;4956760;29;20047;-93
2023/02/13 09:08:41;;;;;;;17.85;9.70;;;-0.10;99.90;;;;;;4957297;28;20051;-94
2023/02/13 09:11:09;;;;;;;40.67;9.25;;;-0.10;99.90;;;;;;4947295;29;20050;-94
2023/02/13 09:13:41;;;;;;;21.73;9.65;;;0.00;99.90;;;;;;4919178;29;20048;-94
2023/02/13 09:16:10;;;;;;;10.85;9.48;;;0.00;99.90;;;;;;4940128;29;20058;-94
2023/02/13 09:18:38;;;;;;;39.72;13.10;;;0.00;99.90;;;;;;4939288;29;20067;-94
2023/02/13 09:21:10;;;;;;;17.42;10.88;;;-0.10;99.90;;;;;;4940017;28;20051;-94
2023/02/13 09:23:40;;;;;;;29.08;11.85;;;0.00;99.90;;;;;;4938716;29;20058;-94
2023/02/13 09:26:10;;;;;;;17.63;10.85;;;-0.10;99.90;;;;;;4938357;29;20039;-95
2023/02/13 09:28:39;;;;;;;18.73;11.05;;;0.00;99.90;;;;;;4936030;29;20051;-95
2023/02/13 09:31:08;;;;;;;12.63;8.18;;;0.10;99.90;;;;;;4950955;29;20071;-94
2023/02/13 09:33:39;;;;;;;15.52;9.50;;;0.20;99.90;;;;;;4939045;29;20066;-94
2023/02/13 09:36:09;;;;;;;18.13;12.50;;;0.20;99.90;;;;;;4919357;29;20051;-93
2023/02/13 09:38:37;;;;;;;21.00;12.55;;;0.30;99.90;;;;;;4919963;29;20043;-94
2023/02/13 09:41:10;;;;;;;17.33;9.30;;;0.30;99.90;;;;;;4951143;28;20494;-94
2023/02/13 09:44:03;;;;;;;15.50;9.52;;;0.30;99.90;;;;;;4952296;29;20058;-95
2023/02/13 09:46:36;;;;;;;20.23;10.23;;;0.30;99.90;;;;;;4933380;29;20062;-93
2023/02/13 09:49:19;;;;;;;23.67;16.23;;;0.40;99.90;;;;;;4953468;28;20039;-94
2023/02/13 09:51:53;;;;;;;10.82;7.85;;;0.40;99.90;;;;;;4941800;29;20066;-95
2023/02/13 09:54:25;;;;;;;18.23;10.82;;;0.40;99.90;;;;;;4931890;29;20423;-94
2023/02/13 09:56:59;;;;;;;17.65;10.35;;;0.40;99.90;;;;;;4914944;29;20040;-94
2023/02/13 09:59:50;;;;;;;19.85;12.27;;;0.40;99.90;;;;;;4953097;29;20051;-94
2023/02/13 10:02:50;;;;;;;19.90;14.00;;;0.40;99.90;;;;;;4929319;29;20050;-93
2023/02/13 10:05:39;;;;;;;18.40;13.63;;;0.40;99.90;;;;;;4951893;29;20054;-94
2023/02/13 10:08:21;;;;;;;29.48;12.82;;;0.40;99.90;;;;;;4953121;29;20070;-95
2023/02/13 10:11:19;;;;;;;20.67;14.50;;;0.50;99.90;;;;;;4918885;29;20052;-94
2023/02/13 10:13:59;;;;;;;18.15;9.40;;;0.60;99.90;;;;;;4947161;29;20214;-94
2023/02/13 10:16:34;;;;;;;21.63;11.65;;;0.50;99.90;;;;;;4932679;28;20051;-93
2023/02/13 10:19:10;;;;;;;15.85;10.93;;;0.40;99.90;;;;;;4937079;29;20055;-94
2023/02/13 10:21:47;;;;;;;18.27;14.27;;;0.40;99.90;;;;;;4913032;29;20059;-93
2023/02/13 10:24:26;;;;;;;31.67;14.02;;;0.50;99.90;;;;;;4948159;28;20047;-94
2023/02/13 10:26:55;;;;;;;19.90;12.32;;;0.50;99.90;;;;;;4919655;29;20062;-94
2023/02/13 10:30:04;;;;;;;16.45;11.38;;;0.60;99.90;;;;;;4951815;29;20039;-93
2023/02/13 10:33:10;;;;;;;18.30;12.43;;;0.70;99.90;;;;;;4934746;28;20428;-93
2023/02/13 10:35:41;;;;;;;14.05;8.13;;;0.80;99.90;;;;;;4915545;29;20055;-94
2023/02/13 10:38:15;;;;;;;19.23;12.13;;;0.90;99.90;;;;;;4949309;29;20039;-93
2023/02/13 10:41:03;;;;;;;17.27;10.55;;;0.90;99.90;;;;;;4938028;28;20047;-94
2023/02/13 10:44:07;;;;;;;15.95;12.18;;;0.90;99.90;;;;;;4931151;29;20059;-93
2023/02/13 10:46:56;;;;;;;18.90;10.98;;;0.90;99.90;;;;;;4939595;29;20054;-93
2023/02/13 10:49:43;;;;;;;24.13;11.32;;;0.90;99.90;;;;;;4919229;29;20051;-93
2023/02/13 10:52:31;;;;;;;16.63;9.88;;;0.90;99.90;;;;;;4934832;29;20066;-93
2023/02/13 10:55:22;;;;;;;16.08;10.73;;;0.80;99.90;;;;;;4911485;29;20059;-83
2023/02/13 10:58:02;;;;;;;18.05;11.13;;;0.90;99.90;;;;;;4925938;29;20416;-83
2023/02/13 11:00:48;;;;;;;16.63;11.48;;;1.00;99.90;;;;;;4936180;28;20055;-83
2023/02/13 11:03:19;;;;;;;21.75;11.77;;;1.10;99.90;;;;;;4942343;29;20743;-83
2023/02/13 11:05:47;;;;;;;36.23;25.07;;;1.20;99.90;;;;;;4921406;28;20048;-93
2023/02/13 11:08:39;;;;;;;22.10;13.35;;;1.30;99.90;;;;;;4936995;29;20070;-94
2023/02/13 11:11:28;;;;;;;21.88;11.95;;;1.30;99.90;;;;;;4915266;29;20059;-93
2023/02/13 11:14:19;;;;;;;16.80;10.18;;;1.30;99.90;;;;;;4920421;29;20039;-92
2023/02/13 11:17:15;;;;;;;25.40;12.48;;;1.40;99.90;;;;;;4922048;29;20051;-94
2023/02/13 11:19:53;;;;;;;17.60;11.63;;;1.60;99.90;;;;;;4950956;29;20054;-94
2023/02/13 11:22:37;;;;;;;25.35;14.00;;;1.40;99.90;;;;;;4919691;29;20420;-94
2023/02/13 11:25:17;;;;;;;15.80;13.32;;;1.20;99.90;;;;;;4950890;28;20047;-94
2023/02/13 11:27:46;;;;;;;18.55;10.25;;;1.30;99.90;;;;;;4903011;29;20439;-93
2023/02/13 11:30:31;;;;;;;18.77;12.60;;;1.40;99.90;;;;;;4924165;29;20051;-93
2023/02/13 11:33:01;;;;;;;20.02;10.88;;;1.50;99.90;;;;;;4898824;29;20048;-93
2023/02/13 11:35:33;;;;;;;15.07;11.23;;;1.50;99.90;;;;;;4928095;29;20056;-88
2023/02/13 11:38:21;;;;;;;16.90;12.85;;;1.50;99.90;;;;;;4915743;29;20047;-94
2023/02/13 11:41:05;;;;;;;18.70;12.60;;;1.60;99.90;;;;;;4929163;29;20050;-92
2023/02/13 11:43:36;;;;;;;28.67;19.77;;;1.90;99.90;;;;;;4913358;29;20055;-94
2023/02/13 11:46:11;;;;;;;249.00;111.32;;;1.80;99.90;;;;;;4909470;29;20044;-93
2023/02/13 11:48:40;;;;;;;19.33;12.65;;;1.70;99.90;;;;;;4910353;29;20055;-94
2023/02/13 11:51:07;;;;;;;71.65;37.00;;;1.80;99.90;;;;;;4912015;29;20059;-94
2023/02/13 11:53:38;;;;;;;21.88;13.45;;;1.80;99.90;;;;;;4915704;29;20043;-93
2023/02/13 11:56:12;;;;;;;17.80;11.30;;;1.90;99.90;;;;;;4932895;29;20059;-94
2023/02/13 11:58:41;;;;;;;20.58;12.75;;;1.90;99.90;;;;;;4934056;29;20051;-93
2023/02/13 12:01:21;;;;;;;18.05;12.73;;;1.80;99.90;;;;;;4936907;28;20047;-95
2023/02/13 12:04:05;;;;;;;19.98;11.23;;;1.80;99.90;;;;;;4944158;29;20056;-94
2023/02/13 12:06:38;;;;;;;14.30;10.75;;;1.70;99.90;;;;;;4934031;29;20054;-94
2023/02/13 12:09:15;;;;;;;18.58;12.32;;;1.70;99.90;;;;;;4938172;29;20047;-94
2023/02/13 12:11:52;;;;;;;18.02;10.85;;;1.70;99.90;;;;;;4897332;29;20066;-94
2023/02/13 12:14:23;;;;;;;21.40;12.45;;;1.70;99.90;;;;;;4925224;29;20052;-93
2023/02/13 12:17:15;;;;;;;20.77;14.32;;;1.90;99.90;;;;;;4937229;29;20044;-94
2023/02/13 12:19:59;;;;;;;15.95;11.57;;;2.00;99.90;;;;;;4938447;29;20066;-93
2023/02/13 12:22:38;;;;;;;10.50;7.57;;;2.00;99.90;;;;;;4923807;29;20039;-93
2023/02/13 12:25:32;;;;;;;14.93;9.77;;;2.00;99.90;;;;;;4908653;29;20047;-93
2023/02/13 12:28:11;;;;;;;46.15;33.17;;;2.00;99.90;;;;;;4938405;29;20058;-93
2023/02/13 12:31:21;;;;;;;15.80;11.70;;;2.00;99.90;;;;;;4937754;29;20054;-94
2023/02/13 12:34:23;;;;;;;17.58;10.75;;;1.90;99.90;;;;;;4910040;29;20051;-94
2023/02/13 12:37:23;;;;;;;23.67;12.77;;;1.80;99.90;;;;;;4924428;29;20039;-94
2023/02/13 12:40:23;;;;;;;13.75;10.90;;;1.80;99.90;;;;;;4937351;29;20633;-93
2023/02/13 12:43:26;;;;;;;19.02;9.85;;;1.70;99.90;;;;;;4906544;29;20586;-94
2023/02/13 12:46:04;;;;;;;17.98;9.90;;;1.80;99.90;;;;;;4954783;29;20043;-93
2023/02/13 12:48:42;;;;;;;37.78;26.95;;;2.00;99.90;;;;;;4933706;29;20082;-93
2023/02/13 12:51:39;;;;;;;10.63;6.43;;;2.00;99.90;;;;;;4929337;29;20059;-93
2023/02/13 12:54:32;;;;;;;15.82;11.10;;;1.90;99.90;;;;;;4920902;29;20047;-93
2023/02/13 12:57:21;;;;;;;17.60;11.15;;;1.90;99.90;;;;;;4937469;29;20043;-93
2023/02/13 13:00:13;;;;;;;23.98;12.23;;;1.90;99.90;;;;;;4937899;29;20062;-93
2023/02/13 13:03:09;;;;;;;17.67;10.35;;;1.80;99.90;;;;;;4942478;29;20062;-93
2023/02/13 13:06:04;;;;;;;18.58;9.00;;;1.70;99.90;;;;;;4908133;29;20056;-94
2023/02/13 13:08:51;;;;;;;14.32;9.95;;;1.70;99.90;;;;;;4936656;29;20416;-93
2023/02/13 13:11:57;;;;;;;12.85;9.38;;;1.60;99.90;;;;;;4920755;29;20063;-92
2023/02/13 13:14:42;;;;;;;14.73;9.68;;;1.50;99.90;;;;;;4925133;29;20043;-94
2023/02/13 13:17:43;;;;;;;21.70;12.18;;;1.60;99.90;;;;;;4920131;29;20059;-95
2023/02/13 13:20:39;;;;;;;7.15;6.60;;;1.60;99.90;;;;;;4936540;29;20043;-95
2023/02/13 13:23:10;;;;;;;17.23;10.88;;;1.70;99.90;;;;;;4919043;29;20048;-93
2023/02/13 13:26:23;;;;;;;11.02;9.23;;;1.70;99.90;;;;;;4950628;29;20066;-94
2023/02/13 13:28:55;;;;;;;14.75;10.23;;;1.70;99.90;;;;;;4875799;29;20548;-93
2023/02/13 13:31:25;;;;;;;18.48;11.40;;;1.90;99.90;;;;;;4940544;29;20538;-93
2023/02/13 13:33:59;;;;;;;14.55;10.40;;;1.90;99.90;;;;;;4923329;29;20059;-94
2023/02/13 13:36:40;;;;;;;15.68;12.25;;;1.90;99.90;;;;;;4928558;29;20067;-93
2023/02/13 13:39:29;;;;;;;22.45;10.98;;;1.80;99.90;;;;;;4933381;29;20058;-93
2023/02/13 13:42:16;;;;;;;11.15;8.75;;;1.70;99.90;;;;;;4936281;29;20043;-93
2023/02/13 13:45:21;;;;;;;16.27;12.45;;;1.80;99.90;;;;;;4940013;29;20051;-93
2023/02/13 13:48:15;;;;;;;18.20;13.60;;;1.80;99.90;;;;;;4923198;29;20435;-93
2023/02/13 13:50:47;;;;;;;21.15;11.68;;;1.80;99.90;;;;;;4952162;29;20047;-92
2023/02/13 13:53:19;;;;;;;17.00;10.20;;;1.90;99.90;;;;;;4921479;29;20336;-93
2023/02/13 13:55:46;;;;;;;15.63;12.00;;;1.90;99.90;;;;;;4933344;29;20428;-93
2023/02/13 13:58:20;;;;;;;13.75;9.65;;;2.00;99.90;;;;;;4925873;29;20394;-94
2023/02/13 14:01:16;;;;;;;16.35;9.80;;;1.90;99.90;;;;;;4937343;28;20050;-93
2023/02/13 14:03:47;;;;;;;10.07;7.18;;;1.90;99.90;;;;;;4926398;29;20059;-93